Time;durP1;ratioP1;P1;durP2;ratioP2;P2;SDS_P1;SDS_P2;PMS_P1;PMS_P2;Temp;Humidity;BMP_temperature;BMP_pressure;BME280_temperature;BME280_humidity;BME280_pressure;Samples;Min_cycle;Max_cycle;Signal;HPM_P1;HPM_P2
2023/10/09 00:02:12;;;;;;;4.57;1.20;;;14.80;99.90;;;;;;5042423;28;20102;-84
2023/10/09 00:04:41;;;;;;;3.63;1.10;;;14.60;99.90;;;;;;5043185;28;20059;-84
2023/10/09 00:07:16;;;;;;;2.92;1.20;;;14.50;99.90;;;;;;5042257;28;20397;-84
2023/10/09 00:09:47;;;;;;;6.30;1.48;;;14.30;99.90;;;;;;5039503;28;20048;-84
2023/10/09 00:12:22;;;;;;;5.43;1.80;;;14.20;99.90;;;;;;5039043;28;20041;-84
2023/10/09 00:14:53;;;;;;;4.78;1.73;;;14.10;99.90;;;;;;5045288;28;20712;-83
2023/10/09 00:17:30;;;;;;;3.28;1.50;;;14.10;99.90;;;;;;5040421;28;20044;-83
2023/10/09 00:20:08;;;;;;;4.50;1.30;;;14.00;99.90;;;;;;5064523;28;20060;-82
2023/10/09 00:22:46;;;;;;;5.13;1.60;;;13.90;99.90;;;;;;5060649;28;20209;-84
2023/10/09 00:27:57;;;;;;;4.05;1.30;;;14.00;99.90;;;;;;5048460;28;20405;-84
2023/10/09 00:30:29;;;;;;;4.72;2.00;;;14.00;99.90;;;;;;5040621;28;20041;-84
2023/10/09 00:33:03;;;;;;;5.55;1.75;;;13.80;99.90;;;;;;5038834;28;20393;-85
2023/10/09 00:35:37;;;;;;;3.75;1.50;;;13.70;99.90;;;;;;5042060;28;20040;-84
2023/10/09 00:38:15;;;;;;;5.10;1.77;;;13.60;99.90;;;;;;5047218;28;20420;-85
2023/10/09 00:40:46;;;;;;;7.50;2.38;;;13.60;99.90;;;;;;5031639;28;20080;-85
2023/10/09 00:43:15;;;;;;;6.40;2.50;;;13.50;99.90;;;;;;5064629;28;21014;-85
2023/10/09 00:45:44;;;;;;;5.45;2.03;;;13.50;99.90;;;;;;5039876;28;20129;-83
2023/10/09 00:48:22;;;;;;;4.43;1.83;;;13.50;99.90;;;;;;5061615;28;20085;-84
2023/10/09 00:50:54;;;;;;;5.78;2.40;;;13.60;99.90;;;;;;5041223;28;20063;-85
2023/10/09 00:53:30;;;;;;;7.88;2.42;;;13.60;99.90;;;;;;5037291;28;20037;-84
2023/10/09 00:56:03;;;;;;;4.45;2.33;;;13.50;99.90;;;;;;5042617;28;20041;-84
2023/10/09 00:58:35;;;;;;;5.20;2.45;;;13.20;99.90;;;;;;5055862;28;20076;-84
2023/10/09 01:01:04;;;;;;;4.20;2.10;;;13.20;99.90;;;;;;5058016;28;20045;-85
2023/10/09 01:03:34;;;;;;;3.65;1.95;;;13.10;99.90;;;;;;5053734;28;20038;-84
2023/10/09 01:06:16;;;;;;;4.82;2.30;;;13.10;99.90;;;;;;5046258;28;20072;-85
2023/10/09 01:08:55;;;;;;;5.75;2.20;;;13.00;99.90;;;;;;5058224;28;20245;-85
2023/10/09 01:11:29;;;;;;;4.60;2.83;;;13.00;99.90;;;;;;5043101;28;20475;-85
2023/10/09 01:14:11;;;;;;;6.40;2.58;;;12.90;99.90;;;;;;5045625;28;20069;-84
2023/10/09 01:16:42;;;;;;;6.43;2.95;;;12.90;99.90;;;;;;5045365;28;20049;-86
2023/10/09 01:19:20;;;;;;;9.73;6.22;;;12.90;99.90;;;;;;5040686;28;20094;-85
2023/10/09 01:21:50;;;;;;;10.00;4.65;;;12.90;99.90;;;;;;5055179;28;20064;-85
2023/10/09 01:24:22;;;;;;;11.63;5.10;;;12.80;99.90;;;;;;5043125;28;20484;-85
2023/10/09 01:26:54;;;;;;;4.95;2.63;;;12.80;99.90;;;;;;5041927;28;20045;-85
2023/10/09 01:29:23;;;;;;;4.57;2.40;;;12.60;99.90;;;;;;5047195;28;20067;-83
2023/10/09 01:31:54;;;;;;;6.50;2.47;;;12.40;99.90;;;;;;5061889;28;20051;-83
2023/10/09 01:34:26;;;;;;;6.53;2.40;;;12.40;99.90;;;;;;5062422;28;20051;-85
2023/10/09 01:36:55;;;;;;;4.45;1.90;;;12.40;99.90;;;;;;5059373;28;20067;-84
2023/10/09 01:39:26;;;;;;;5.53;2.30;;;12.40;99.90;;;;;;5043049;28;20052;-84
2023/10/09 01:42:06;;;;;;;6.47;2.00;;;12.30;99.90;;;;;;5044950;28;20041;-84
2023/10/09 01:44:35;;;;;;;3.95;2.05;;;12.30;99.90;;;;;;5049453;28;20045;-85
2023/10/09 01:47:07;;;;;;;5.63;1.80;;;12.30;99.90;;;;;;5036924;28;20215;-84
2023/10/09 01:49:37;;;;;;;5.20;1.80;;;12.10;99.90;;;;;;5039602;28;20124;-85
2023/10/09 01:52:08;;;;;;;4.28;1.98;;;12.10;99.90;;;;;;5051569;28;20048;-85
2023/10/09 01:54:41;;;;;;;4.50;2.00;;;12.10;99.90;;;;;;5042937;28;20052;-84
2023/10/09 01:57:13;;;;;;;3.63;1.65;;;12.10;99.90;;;;;;5062257;28;20119;-85
2023/10/09 01:59:43;;;;;;;4.28;1.83;;;12.10;99.90;;;;;;5046103;28;20040;-83
2023/10/09 02:02:25;;;;;;;4.18;1.65;;;12.00;99.90;;;;;;5045528;28;20048;-84
2023/10/09 02:04:54;;;;;;;3.28;1.83;;;12.00;99.90;;;;;;5049313;28;20047;-85
2023/10/09 02:07:28;;;;;;;4.93;2.10;;;11.90;99.90;;;;;;5045631;28;20052;-84
2023/10/09 02:09:58;;;;;;;5.47;1.90;;;11.80;99.90;;;;;;5045996;28;20127;-86
2023/10/09 02:12:33;;;;;;;3.83;1.90;;;11.70;99.90;;;;;;5058019;28;20052;-86
2023/10/09 02:15:06;;;;;;;4.07;1.83;;;11.80;99.90;;;;;;5050691;28;20043;-84
2023/10/09 02:17:34;;;;;;;6.38;2.42;;;11.80;99.90;;;;;;5081044;28;20033;-85
2023/10/09 02:20:16;;;;;;;6.43;2.28;;;11.70;99.90;;;;;;5061299;28;20024;-85
2023/10/09 02:22:44;;;;;;;5.40;2.30;;;11.60;99.90;;;;;;5065722;28;20068;-84
2023/10/09 02:25:14;;;;;;;4.15;2.15;;;11.50;99.90;;;;;;5065202;28;20041;-85
2023/10/09 02:27:46;;;;;;;6.03;2.17;;;11.40;99.90;;;;;;5076226;28;20052;-84
2023/10/09 02:30:19;;;;;;;6.80;2.28;;;11.30;99.90;;;;;;5066588;28;20037;-84
2023/10/09 02:32:53;;;;;;;4.32;2.25;;;11.20;99.90;;;;;;5067113;28;20040;-85
2023/10/09 02:35:22;;;;;;;4.10;2.30;;;11.10;99.90;;;;;;5074072;28;20057;-84
2023/10/09 02:37:49;;;;;;;6.30;2.38;;;11.20;99.90;;;;;;5059069;28;20113;-84
2023/10/09 02:40:24;;;;;;;5.13;2.05;;;11.40;99.90;;;;;;5051836;28;20045;-83
2023/10/09 02:42:53;;;;;;;5.88;2.33;;;11.30;99.90;;;;;;5044979;28;20512;-83
2023/10/09 02:45:29;;;;;;;6.25;2.13;;;11.20;99.90;;;;;;5047422;28;20041;-84
2023/10/09 02:48:14;;;;;;;7.65;2.40;;;11.00;99.90;;;;;;5070293;28;20120;-85
2023/10/09 02:50:44;;;;;;;6.60;1.90;;;10.90;99.90;;;;;;5045090;28;20041;-85
2023/10/09 02:53:18;;;;;;;4.32;1.85;;;10.70;99.90;;;;;;5039721;28;20128;-85
2023/10/09 02:56:03;;;;;;;3.50;2.00;;;10.80;99.90;;;;;;5044811;28;20079;-84
2023/10/09 02:58:32;;;;;;;4.97;2.22;;;10.90;99.90;;;;;;5043247;28;20049;-84
2023/10/09 03:01:00;;;;;;;5.82;2.17;;;10.90;99.90;;;;;;5067211;28;20063;-85
2023/10/09 03:03:27;;;;;;;4.50;2.03;;;10.90;99.90;;;;;;5094144;28;20041;-85
2023/10/09 03:05:55;;;;;;;5.75;2.17;;;10.80;99.90;;;;;;5066190;28;20049;-84
2023/10/09 03:08:22;;;;;;;4.00;2.15;;;10.80;99.90;;;;;;5038131;28;20049;-84
2023/10/09 03:10:52;;;;;;;10.52;2.70;;;10.70;99.90;;;;;;5057484;28;20049;-84
2023/10/09 03:13:21;;;;;;;6.25;3.08;;;10.60;99.90;;;;;;5050697;28;20053;-84
2023/10/09 03:15:51;;;;;;;5.65;3.25;;;10.50;99.90;;;;;;5065631;28;20076;-84
2023/10/09 03:18:19;;;;;;;5.78;3.47;;;10.30;99.90;;;;;;5062503;28;20146;-84
2023/10/09 03:20:47;;;;;;;7.40;3.20;;;10.30;99.90;;;;;;5062331;28;20053;-86
2023/10/09 03:23:15;;;;;;;5.53;2.40;;;10.20;99.90;;;;;;5083774;28;20055;-85
2023/10/09 03:25:45;;;;;;;5.10;2.10;;;10.30;99.90;;;;;;5051279;28;20025;-85
2023/10/09 03:28:15;;;;;;;4.60;2.40;;;10.50;99.90;;;;;;5092545;28;20064;-85
2023/10/09 03:30:46;;;;;;;4.50;2.25;;;10.50;99.90;;;;;;5071648;28;20045;-84
2023/10/09 03:33:15;;;;;;;7.25;2.53;;;10.50;99.90;;;;;;5066426;28;20041;-84
2023/10/09 03:35:43;;;;;;;7.60;3.05;;;10.40;99.90;;;;;;5074436;28;20029;-83
2023/10/09 03:38:17;;;;;;;5.47;2.50;;;10.30;99.90;;;;;;5067848;28;20045;-85
2023/10/09 03:40:47;;;;;;;3.85;2.10;;;10.20;99.90;;;;;;5066165;28;20056;-84
2023/10/09 03:43:17;;;;;;;4.13;2.28;;;10.20;99.90;;;;;;5092031;28;20053;-84
2023/10/09 03:45:52;;;;;;;5.95;2.33;;;10.20;99.90;;;;;;5064873;28;20071;-85
2023/10/09 03:48:25;;;;;;;5.57;2.70;;;10.20;99.90;;;;;;5065760;28;20064;-86
2023/10/09 03:51:08;;;;;;;6.43;2.83;;;10.30;99.90;;;;;;5072061;28;20044;-84
2023/10/09 03:53:39;;;;;;;7.30;2.95;;;10.10;99.90;;;;;;5066917;28;20041;-84
2023/10/09 03:56:11;;;;;;;5.60;2.83;;;10.00;99.90;;;;;;5063389;28;20067;-83
2023/10/09 03:58:45;;;;;;;7.93;3.10;;;10.00;99.90;;;;;;5088487;28;20047;-85
2023/10/09 04:01:22;;;;;;;8.98;3.28;;;10.10;99.90;;;;;;5081166;28;20041;-85
2023/10/09 04:03:51;;;;;;;8.43;3.70;;;10.00;99.90;;;;;;5064459;28;20033;-85
2023/10/09 04:06:18;;;;;;;11.70;4.95;;;10.00;99.90;;;;;;5090640;28;20245;-85
2023/10/09 04:08:49;;;;;;;12.32;5.57;;;9.90;99.90;;;;;;5064063;28;20033;-84
2023/10/09 04:11:24;;;;;;;12.50;5.53;;;9.90;99.90;;;;;;5065461;28;20036;-84
2023/10/09 04:13:53;;;;;;;11.95;5.60;;;10.00;99.90;;;;;;5074064;28;20041;-86
2023/10/09 04:19:11;;;;;;;11.65;3.65;;;10.00;99.90;;;;;;5085767;28;20084;-85
2023/10/09 04:21:41;;;;;;;11.10;3.97;;;10.00;99.90;;;;;;5075590;28;20043;-83
2023/10/09 04:24:24;;;;;;;12.13;4.30;;;9.90;99.90;;;;;;5080294;28;20056;-85
2023/10/09 04:26:56;;;;;;;7.50;3.60;;;9.80;99.90;;;;;;5063383;28;20049;-83
2023/10/09 04:29:27;;;;;;;11.10;4.07;;;9.90;99.90;;;;;;5066868;28;20040;-84
2023/10/09 04:31:56;;;;;;;7.30;3.92;;;9.90;99.90;;;;;;5077560;28;20064;-84
2023/10/09 04:34:23;;;;;;;8.50;4.13;;;9.90;99.90;;;;;;5064221;28;20064;-82
2023/10/09 04:36:56;;;;;;;7.97;4.32;;;9.90;99.90;;;;;;5078060;28;20067;-85
2023/10/09 04:39:46;;;;;;;10.18;4.32;;;9.80;99.90;;;;;;5056719;28;20045;-84
2023/10/09 04:45:51;;;;;;;8.07;4.68;;;9.70;99.90;;;;;;5051133;28;20037;-83
2023/10/09 04:47:49;;;;;;;16.85;6.75;;;9.70;99.90;;;;;;5051711;28;20064;-85
2023/10/09 04:53:22;;;;;;;11.27;5.60;;;9.60;99.90;;;;;;5074009;28;20040;-86
2023/10/09 04:55:54;;;;;;;9.57;4.80;;;9.60;99.90;;;;;;5090446;28;20063;-85
2023/10/09 04:58:26;;;;;;;9.90;4.30;;;9.60;99.90;;;;;;5081990;28;20031;-85
2023/10/09 05:01:12;;;;;;;8.10;4.35;;;9.50;99.90;;;;;;5082419;28;20053;-84
2023/10/09 05:03:45;;;;;;;6.95;4.53;;;9.60;99.90;;;;;;5046367;28;20672;-85
2023/10/09 05:06:42;;;;;;;9.32;4.88;;;9.50;99.90;;;;;;5044715;28;20053;-85
2023/10/09 05:09:23;;;;;;;9.23;4.18;;;9.60;99.90;;;;;;5045178;28;20389;-84
2023/10/09 05:11:53;;;;;;;11.23;5.15;;;9.60;99.90;;;;;;5047462;28;20037;-85
2023/10/09 05:14:39;;;;;;;6.97;4.82;;;9.60;99.90;;;;;;5050042;28;20045;-83
2023/10/09 05:17:15;;;;;;;8.77;4.57;;;9.60;99.90;;;;;;5057451;28;20048;-84
2023/10/09 05:19:54;;;;;;;10.27;5.03;;;9.70;99.90;;;;;;5057774;28;20128;-86
2023/10/09 05:22:38;;;;;;;15.75;5.88;;;9.60;99.90;;;;;;5066609;28;20053;-85
2023/10/09 05:25:30;;;;;;;18.98;10.20;;;9.40;99.90;;;;;;5052529;28;20048;-85
2023/10/09 05:28:24;;;;;;;12.30;7.05;;;9.30;99.90;;;;;;5051053;28;20045;-86
2023/10/09 05:30:44;;;;;;;;;;;9.40;99.90;;;;;;5067143;28;20037;-85
2023/10/09 05:36:31;;;;;;;9.38;5.03;;;9.50;99.90;;;;;;5043340;28;20392;-84
2023/10/09 05:39:17;;;;;;;12.95;6.03;;;9.50;99.90;;;;;;5042872;28;20412;-84
2023/10/09 05:41:59;;;;;;;10.30;6.25;;;9.50;99.90;;;;;;5045931;28;20044;-85
2023/10/09 05:47:33;;;;;;;11.70;7.28;;;9.60;99.90;;;;;;5028323;28;20049;-86
2023/10/09 05:53:09;;;;;;;11.35;5.57;;;9.90;99.90;;;;;;5011285;28;20075;-88
2023/10/09 05:57:00;;;;;;;11.45;6.40;;;10.10;99.90;;;;;;5045065;28;20037;-87
2023/10/09 06:04:15;;;;;;;11.55;6.05;;;10.40;99.90;;;;;;5044087;28;20055;-84
2023/10/09 06:06:44;;;;;;;;;;;10.50;99.90;;;;;;5035601;28;20045;-88
2023/10/09 06:15:18;;;;;;;13.27;6.47;;;11.00;99.90;;;;;;5030587;28;20553;-83
2023/10/09 06:17:50;;;;;;;13.90;7.00;;;11.10;99.90;;;;;;5029353;28;20073;-87
2023/10/09 06:23:16;;;;;;;11.23;6.47;;;11.20;99.90;;;;;;5029779;28;20061;-84
2023/10/09 06:25:51;;;;;;;13.32;6.68;;;11.30;99.90;;;;;;5047229;28;20049;-85
2023/10/09 06:28:32;;;;;;;11.45;6.38;;;11.50;99.90;;;;;;5032972;28;20045;-86
2023/10/09 06:31:27;;;;;;;9.38;5.50;;;11.60;99.90;;;;;;5015589;28;20026;-85
2023/10/09 06:34:08;;;;;;;13.07;7.20;;;11.90;99.90;;;;;;5065317;28;20106;-83
2023/10/09 06:36:46;;;;;;;11.23;5.75;;;12.30;99.90;;;;;;5045614;28;20113;-85
2023/10/09 06:42:30;;;;;;;12.57;7.05;;;12.60;99.90;;;;;;5027485;28;20045;-86
2023/10/09 06:45:04;;;;;;;9.25;5.00;;;12.80;99.90;;;;;;5038167;28;20034;-86
2023/10/09 06:47:40;;;;;;;11.93;4.53;;;13.10;99.90;;;;;;5040126;28;20270;-86
2023/10/09 06:50:24;;;;;;;8.55;4.65;;;13.30;99.90;;;;;;5026651;28;20422;-85
2023/10/09 06:53:19;;;;;;;9.77;4.55;;;13.60;99.90;;;;;;5029326;28;20057;-86
2023/10/09 06:55:51;;;;;;;9.80;5.32;;;13.80;99.90;;;;;;5026997;28;20060;-84
2023/10/09 06:58:26;;;;;;;9.52;5.85;;;13.80;99.90;;;;;;5050130;28;20053;-85
2023/10/09 07:01:19;;;;;;;9.10;5.27;;;14.10;99.90;;;;;;5021510;28;20073;-84
2023/10/09 07:03:54;;;;;;;11.77;6.80;;;14.30;99.90;;;;;;5034734;28;20360;-87
2023/10/09 07:06:48;;;;;;;13.38;7.25;;;14.60;99.90;;;;;;5056306;28;20141;-86
2023/10/09 07:09:18;;;;;;;17.40;8.15;;;14.80;99.90;;;;;;5023636;28;20042;-86
2023/10/09 07:11:59;;;;;;;10.90;5.43;;;14.80;99.90;;;;;;5049715;28;20038;-86
2023/10/09 07:20:13;;;;;;;10.82;5.13;;;15.20;99.90;;;;;;5030390;28;20029;-84
2023/10/09 07:22:52;;;;;;;8.52;4.97;;;15.40;99.90;;;;;;5027262;28;20069;-85
2023/10/09 07:28:36;;;;;;;11.25;5.25;;;15.60;99.90;;;;;;5010922;28;20046;-85
2023/10/09 07:31:08;;;;;;;14.23;5.75;;;15.80;99.90;;;;;;5088271;28;20045;-87
2023/10/09 07:36:29;;;;;;;5.88;2.75;;;16.00;99.90;;;;;;5059972;28;20084;-85
2023/10/09 07:38:59;;;;;;;6.40;2.92;;;16.00;99.90;;;;;;5059778;28;20065;-86
2023/10/09 07:41:37;;;;;;;7.43;3.08;;;16.00;99.90;;;;;;5059185;28;20064;-85
2023/10/09 07:47:13;;;;;;;4.55;2.38;;;16.10;99.90;;;;;;5052548;28;20065;-86
2023/10/09 07:49:39;;;;;;;4.78;2.00;;;16.30;99.90;;;;;;5045623;28;20047;-86
2023/10/09 07:52:07;;;;;;;5.93;2.72;;;16.40;99.90;;;;;;5044376;28;20049;-86
2023/10/09 07:54:42;;;;;;;7.07;4.20;;;16.50;99.90;;;;;;5048711;28;20065;-87
2023/10/09 07:57:28;;;;;;;7.45;3.50;;;16.60;99.90;;;;;;5047079;28;20061;-86
2023/10/09 08:00:35;;;;;;;7.93;3.78;;;16.40;99.90;;;;;;5050699;28;20213;-86
2023/10/09 08:03:00;;;;;;;9.27;4.30;;;16.40;99.90;;;;;;5048460;28;20069;-85
2023/10/09 08:05:33;;;;;;;8.68;5.40;;;16.20;99.90;;;;;;5047008;28;20062;-87
2023/10/09 08:08:29;;;;;;;12.48;5.10;;;16.40;99.90;;;;;;5045158;28;20049;-85
2023/10/09 08:14:00;;;;;;;11.07;3.42;;;17.00;99.90;;;;;;5047489;28;20175;-87
2023/10/09 08:16:39;;;;;;;8.98;3.33;;;16.80;99.90;;;;;;5029568;28;20652;-85
2023/10/09 08:19:32;;;;;;;5.35;2.80;;;17.00;99.90;;;;;;5059928;28;20052;-86
2023/10/09 08:22:42;;;;;;;7.40;2.90;;;17.30;99.90;;;;;;5038458;28;20447;-85
2023/10/09 08:25:29;;;;;;;7.00;3.00;;;17.60;99.90;;;;;;5028667;28;20045;-86
2023/10/09 08:30:48;;;;;;;9.85;2.38;;;17.90;99.90;;;;;;5044605;28;20037;-86
2023/10/09 08:36:14;;;;;;;6.40;2.40;;;17.60;99.90;;;;;;5003536;28;20042;-84
2023/10/09 08:38:52;;;;;;;7.05;2.67;;;17.60;99.90;;;;;;5038832;28;20115;-85
2023/10/09 08:41:23;;;;;;;7.60;3.47;;;17.60;99.90;;;;;;5064283;28;20152;-84
2023/10/09 08:43:55;;;;;;;5.82;2.38;;;17.70;99.90;;;;;;5066204;28;20049;-85
2023/10/09 08:46:32;;;;;;;4.28;2.53;;;17.90;99.90;;;;;;5064036;28;20053;-86
2023/10/09 08:49:05;;;;;;;7.05;3.88;;;17.90;99.90;;;;;;5036815;28;20049;-84
2023/10/09 08:51:38;;;;;;;7.60;3.15;;;18.20;99.90;;;;;;5033994;28;20092;-85
2023/10/09 08:54:11;;;;;;;6.90;2.85;;;18.40;99.90;;;;;;5039546;28;20037;-85
2023/10/09 08:56:49;;;;;;;4.45;2.40;;;18.70;99.90;;;;;;5065754;28;20118;-87
2023/10/09 08:59:35;;;;;;;5.63;2.25;;;18.80;99.90;;;;;;5073627;28;20038;-85
2023/10/09 09:02:11;;;;;;;8.02;2.40;;;18.90;99.90;;;;;;5068359;28;20057;-86
2023/10/09 09:04:45;;;;;;;7.70;2.90;;;19.10;99.90;;;;;;5032630;28;20041;-86
2023/10/09 09:07:56;;;;;;;5.30;2.65;;;19.20;99.90;;;;;;5045190;28;20068;-87
2023/10/09 09:10:46;;;;;;;10.85;4.82;;;19.30;99.90;;;;;;5014299;28;20133;-87
2023/10/09 09:13:58;;;;;;;6.95;3.90;;;19.50;99.90;;;;;;5022010;28;20119;-88
2023/10/09 09:16:30;;;;;;;14.75;8.75;;;19.70;99.90;;;;;;5007712;28;20071;-87
2023/10/09 09:19:25;;;;;;;6.68;3.13;;;19.80;99.90;;;;;;5038579;28;20049;-87
2023/10/09 09:22:11;;;;;;;;;;;19.90;99.90;;;;;;5056093;28;20045;-85
2023/10/09 09:25:10;;;;;;;5.97;2.45;;;19.90;99.90;;;;;;5038381;28;19921;-87
2023/10/09 09:28:09;;;;;;;6.75;2.10;;;19.70;99.90;;;;;;5013305;28;20149;-87
2023/10/09 09:30:53;;;;;;;6.00;2.15;;;19.50;99.90;;;;;;5084572;28;20037;-85
2023/10/09 09:33:39;;;;;;;5.28;2.50;;;19.50;99.90;;;;;;5050484;28;20442;-85
2023/10/09 09:39:33;;;;;;;9.90;3.50;;;20.00;99.90;;;;;;5038736;28;20038;-85
2023/10/09 09:42:24;;;;;;;6.13;2.88;;;20.00;99.90;;;;;;5066381;28;20076;-85
2023/10/09 09:45:12;;;;;;;5.88;2.70;;;20.10;99.90;;;;;;5058259;28;20040;-87
2023/10/09 09:47:51;;;;;;;8.30;4.60;;;19.90;99.90;;;;;;5071379;28;20033;-88
2023/10/09 09:50:28;;;;;;;12.02;5.25;;;20.00;99.90;;;;;;5057676;28;20557;-88
2023/10/09 09:53:16;;;;;;;11.60;3.70;;;20.20;99.90;;;;;;5041991;28;20087;-87
2023/10/09 09:55:55;;;;;;;7.15;3.10;;;20.40;99.90;;;;;;5036188;28;20045;-86
2023/10/09 09:58:32;;;;;;;8.23;3.13;;;20.40;99.90;;;;;;5041236;28;20064;-84
2023/10/09 10:01:16;;;;;;;6.70;3.70;;;20.60;99.90;;;;;;5046525;28;20044;-85
2023/10/09 10:03:52;;;;;;;7.07;3.85;;;20.70;99.90;;;;;;5043425;28;20046;-85
2023/10/09 10:06:40;;;;;;;24.35;16.67;;;20.70;99.90;;;;;;5041645;28;20125;-86
2023/10/09 10:09:20;;;;;;;18.52;11.23;;;20.90;99.90;;;;;;5058447;28;20053;-86
2023/10/09 10:12:14;;;;;;;;;;;;;;;;;;;;;
2023/10/09 10:15:14;;;;;;;13.13;7.85;;;21.50;99.90;;;;;;5037031;28;20353;-86
2023/10/09 10:18:10;;;;;;;15.70;6.45;;;21.80;99.90;;;;;;5013773;28;20390;-86
2023/10/09 10:21:33;;;;;;;8.57;3.95;;;22.00;99.90;;;;;;5024900;28;20512;-84
2023/10/09 10:24:54;;;;;;;9.23;4.88;;;22.00;99.90;;;;;;5046038;28;20079;-86
2023/10/09 10:28:11;;;;;;;6.95;3.90;;;22.00;99.90;;;;;;5043893;28;20103;-86
2023/10/09 10:37:50;;;;;;;10.00;4.88;;;22.30;99.90;;;;;;4986975;28;20046;-87
2023/10/09 10:41:22;;;;;;;14.48;4.20;;;22.00;99.90;;;;;;5014627;28;20042;-87
2023/10/09 10:48:08;;;;;;;9.95;4.35;;;22.60;99.90;;;;;;4862080;29;20127;-87
2023/10/09 10:50:39;;;;;;;14.05;8.02;;;22.80;99.90;;;;;;4940572;29;20040;-87
2023/10/09 10:56:59;;;;;;;9.80;5.68;;;23.70;99.90;;;;;;4927252;29;20087;-88
2023/10/09 10:59:45;;;;;;;13.45;7.75;;;23.50;99.90;;;;;;4919928;29;20468;-85
2023/10/09 11:02:27;;;;;;;11.23;7.30;;;23.50;99.90;;;;;;4909312;29;20538;-87
2023/10/09 11:08:15;;;;;;;11.45;5.97;;;23.60;99.90;;;;;;4916555;29;20129;-87
2023/10/09 11:11:41;;;;;;;9.48;6.20;;;23.50;99.90;;;;;;4919238;29;20139;-87
2023/10/09 11:14:23;;;;;;;12.38;6.65;;;23.30;99.90;;;;;;4894321;29;20040;-88
2023/10/09 11:17:34;;;;;;;;;;;;;;;;;;;;;
2023/10/09 11:21:22;;;;;;;12.18;5.80;;;22.80;99.90;;;;;;4939712;28;20502;-86
2023/10/09 11:28:27;;;;;;;11.18;6.60;;;22.70;99.90;;;;;;5111355;27;20895;-89
2023/10/09 11:31:15;;;;;;;11.70;5.63;;;22.60;99.90;;;;;;5131758;28;20055;-89
2023/10/09 11:34:28;;;;;;;;;;;;;;;;;;;;;
2023/10/09 11:38:00;;;;;;;11.85;5.53;;;22.80;99.90;;;;;;5058916;28;20039;-90
2023/10/09 12:10:00;;;;;;;21.83;11.25;;;23.60;99.90;;;;;;6047393;23;20062;-92
2023/10/09 12:13:04;;;;;;;16.98;8.40;;;23.50;99.90;;;;;;6047657;23;20011;-89
2023/10/09 12:15:39;;;;;;;18.40;9.05;;;23.50;99.90;;;;;;6061771;23;20011;-89
2023/10/09 12:18:14;;;;;;;14.52;7.60;;;23.50;99.90;;;;;;6026772;23;20490;-89
2023/10/09 12:20:50;;;;;;;13.48;7.80;;;23.40;99.90;;;;;;6031443;23;20035;-92
2023/10/09 12:26:35;;;;;;;21.08;7.05;;;23.40;99.90;;;;;;6070880;23;20070;-91
2023/10/09 12:29:19;;;;;;;16.20;7.93;;;23.50;99.90;;;;;;6037661;23;20023;-91
2023/10/09 12:31:47;;;;;;;16.25;8.50;;;23.30;99.90;;;;;;6064983;23;20047;-90
2023/10/09 12:34:17;;;;;;;11.10;7.18;;;23.20;99.90;;;;;;6033091;23;20034;-88
2023/10/09 12:36:55;;;;;;;22.25;12.20;;;23.20;99.90;;;;;;6037876;23;20047;-88
2023/10/09 12:39:33;;;;;;;13.60;7.85;;;23.20;99.90;;;;;;6025104;23;20463;-89
2023/10/09 12:45:39;;;;;;;15.43;7.25;;;23.30;99.90;;;;;;6057674;23;20037;-92
2023/10/09 12:52:30;;;;;;;13.00;6.40;;;23.90;99.90;;;;;;5873699;24;20060;-87
2023/10/09 12:55:06;;;;;;;16.38;8.40;;;23.80;99.90;;;;;;5876663;24;20645;-89
2023/10/09 13:00:48;;;;;;;14.45;7.40;;;23.70;99.90;;;;;;5886987;24;20505;-90
2023/10/09 13:27:34;;;;;;;19.75;7.25;;;23.50;99.90;;;;;;5903137;24;20080;-92
2023/10/09 13:30:06;;;;;;;12.93;8.18;;;23.50;99.90;;;;;;5946054;23;20020;-92
2023/10/09 13:32:37;;;;;;;15.75;7.18;;;23.50;99.90;;;;;;6059517;23;20023;-93
2023/10/09 13:35:37;;;;;;;14.82;7.80;;;23.60;99.90;;;;;;6057438;23;20025;-90
2023/10/09 13:38:09;;;;;;;12.90;6.97;;;23.70;99.90;;;;;;6009385;23;20024;-90
2023/10/09 13:43:56;;;;;;;15.38;8.55;;;23.90;99.90;;;;;;6038053;23;20492;-89
2023/10/09 13:46:41;;;;;;;16.02;7.50;;;24.10;99.90;;;;;;6045736;23;20024;-89
2023/10/09 13:49:29;;;;;;;11.80;6.43;;;24.30;99.90;;;;;;6050483;23;20019;-91
2023/10/09 13:54:48;;;;;;;16.50;7.05;;;24.50;99.90;;;;;;6045112;23;20102;-85
2023/10/09 13:57:26;;;;;;;14.18;7.68;;;24.60;99.90;;;;;;6044160;23;20090;-88
2023/10/09 14:03:21;;;;;;;;;;;;;;;;;;;;;
2023/10/09 14:05:56;;;;;;;33.22;10.00;;;24.90;99.90;;;;;;6037684;23;20015;-88
2023/10/09 14:08:26;;;;;;;13.55;7.32;;;24.90;99.90;;;;;;6043315;23;20361;-86
2023/10/09 14:10:57;;;;;;;19.83;9.48;;;24.80;99.90;;;;;;6047664;23;20468;-86
2023/10/09 14:13:34;;;;;;;16.40;8.32;;;24.70;99.90;;;;;;6046567;23;20015;-87
2023/10/09 14:16:06;;;;;;;18.38;8.07;;;24.60;99.90;;;;;;6052739;23;20030;-85
2023/10/09 14:21:25;;;;;;;13.68;6.93;;;24.60;99.90;;;;;;6038275;23;20024;-87
2023/10/09 14:26:56;;;;;;;13.48;7.63;;;24.60;99.90;;;;;;6066302;23;20023;-87
2023/10/09 14:29:44;;;;;;;14.00;7.45;;;24.60;99.90;;;;;;6080784;23;20011;-88
2023/10/09 14:32:15;;;;;;;13.70;7.18;;;24.60;99.90;;;;;;6025503;23;20027;-87
2023/10/09 14:34:49;;;;;;;15.40;10.73;;;24.50;99.90;;;;;;6044971;23;20047;-90
2023/10/09 14:41:57;;;;;;;19.58;8.07;;;24.30;99.90;;;;;;5874517;24;20101;-90
2023/10/09 14:44:27;;;;;;;16.17;8.77;;;24.30;99.90;;;;;;5909142;24;20321;-92
2023/10/09 15:00:53;;;;;;;18.23;11.68;;;24.00;99.90;;;;;;5771946;24;20031;-90
2023/10/09 15:06:53;;;;;;;21.75;9.80;;;24.00;99.90;;;;;;5826153;24;20030;-87
2023/10/09 15:09:54;;;;;;;20.30;9.90;;;23.90;99.90;;;;;;5824255;24;20065;-86
2023/10/09 15:12:46;;;;;;;21.02;10.77;;;23.80;99.90;;;;;;5842244;24;20079;-87
2023/10/09 15:16:17;;;;;;;18.73;10.23;;;23.70;99.90;;;;;;5826127;24;20034;-86
2023/10/09 15:22:34;;;;;;;21.52;12.15;;;23.50;99.90;;;;;;5812231;24;20046;-86
2023/10/09 15:25:26;;;;;;;22.15;12.98;;;23.30;99.90;;;;;;5894309;24;20055;-85
2023/10/09 15:28:02;;;;;;;20.40;13.05;;;23.20;99.90;;;;;;6018779;23;20029;-84
2023/10/09 15:30:31;;;;;;;20.02;11.80;;;23.10;99.90;;;;;;6036758;23;20132;-86
2023/10/09 15:32:59;;;;;;;25.05;15.23;;;23.00;99.90;;;;;;6039482;23;20604;-86
2023/10/09 15:35:29;;;;;;;26.67;13.50;;;23.00;99.90;;;;;;6036553;23;20023;-87
2023/10/09 15:37:57;;;;;;;26.55;12.82;;;22.90;99.90;;;;;;6060029;23;20038;-87
2023/10/09 15:40:27;;;;;;;23.25;12.68;;;22.70;99.90;;;;;;6067003;23;20021;-88
2023/10/09 15:42:56;;;;;;;26.95;17.23;;;22.60;99.90;;;;;;6048647;23;20023;-86
2023/10/09 15:45:24;;;;;;;26.60;12.13;;;22.50;99.90;;;;;;6060131;23;20354;-87
2023/10/09 15:47:52;;;;;;;23.40;13.07;;;22.40;99.90;;;;;;6041233;23;20097;-86
2023/10/09 15:50:22;;;;;;;25.70;13.27;;;22.30;99.90;;;;;;6044273;23;20027;-87
2023/10/09 15:52:51;;;;;;;19.65;10.85;;;22.20;99.90;;;;;;6046087;23;20034;-85
2023/10/09 15:55:20;;;;;;;25.08;12.20;;;22.10;99.90;;;;;;6074602;23;20019;-86
2023/10/09 15:57:54;;;;;;;20.05;12.10;;;22.00;99.90;;;;;;6000041;23;20052;-86
2023/10/09 16:00:28;;;;;;;18.23;12.30;;;21.80;99.90;;;;;;5995723;23;20039;-86
2023/10/09 16:02:56;;;;;;;30.42;17.98;;;21.70;99.90;;;;;;6007795;23;20031;-85
2023/10/09 16:05:25;;;;;;;33.70;23.15;;;21.50;99.90;;;;;;5995141;23;20083;-86
2023/10/09 16:07:53;;;;;;;47.75;32.42;;;21.50;99.90;;;;;;6022372;23;20032;-86
2023/10/09 16:10:25;;;;;;;58.03;42.53;;;21.40;99.90;;;;;;6014274;23;20027;-85
2023/10/09 16:12:54;;;;;;;47.15;29.02;;;21.20;99.90;;;;;;6020870;23;20038;-86
2023/10/09 16:15:24;;;;;;;48.25;31.52;;;21.00;99.90;;;;;;6042519;23;20027;-86
2023/10/09 16:17:58;;;;;;;48.88;29.40;;;20.90;99.90;;;;;;5996190;23;20028;-86
2023/10/09 16:20:26;;;;;;;60.92;44.90;;;20.80;99.90;;;;;;6013378;23;20008;-86
2023/10/09 16:22:55;;;;;;;52.53;36.67;;;20.70;99.90;;;;;;6032807;23;20047;-85
2023/10/09 16:25:24;;;;;;;46.63;32.65;;;20.60;99.90;;;;;;6039627;23;20265;-85
2023/10/09 16:27:58;;;;;;;45.70;28.80;;;20.50;99.90;;;;;;6030026;23;20019;-86
2023/10/09 16:30:27;;;;;;;47.47;28.88;;;20.40;99.90;;;;;;6016082;23;20330;-86
2023/10/09 16:32:55;;;;;;;48.88;30.02;;;20.30;99.90;;;;;;6013066;23;20406;-87
2023/10/09 16:35:23;;;;;;;53.10;35.05;;;20.20;99.90;;;;;;6015721;23;20554;-85
2023/10/09 16:37:52;;;;;;;53.10;35.67;;;20.10;99.90;;;;;;6018993;23;20039;-84
2023/10/09 16:40:21;;;;;;;60.95;41.05;;;20.10;99.90;;;;;;6011630;23;20039;-87
2023/10/09 16:42:53;;;;;;;68.38;46.55;;;20.10;99.90;;;;;;6038908;23;20038;-86
2023/10/09 16:45:22;;;;;;;65.85;41.90;;;20.10;99.90;;;;;;6039951;23;20043;-87
2023/10/09 16:47:50;;;;;;;84.55;52.67;;;20.00;99.90;;;;;;6036811;23;20052;-86
2023/10/09 16:50:25;;;;;;;82.32;49.63;;;19.90;99.90;;;;;;6037348;23;20031;-86
2023/10/09 16:52:52;;;;;;;81.75;51.45;;;19.80;99.90;;;;;;6062102;23;20023;-86
2023/10/09 16:55:20;;;;;;;82.28;51.47;;;19.80;99.90;;;;;;6049511;23;20046;-86
2023/10/09 16:57:51;;;;;;;64.35;41.85;;;19.70;99.90;;;;;;6062943;23;20060;-86